createdAt,value
2019-06-11T00:02:31.972Z,16.0
2019-06-11T00:07:28.347Z,16.0
2019-06-11T00:12:28.016Z,16.0
2019-06-11T00:17:28.711Z,15.9
2019-06-11T00:22:28.111Z,15.9
2019-06-11T00:27:27.979Z,15.8
2019-06-11T00:32:31.129Z,15.7
2019-06-11T00:37:27.664Z,15.6
2019-06-11T00:42:28.129Z,15.6
2019-06-11T00:47:31.269Z,15.7
2019-06-11T00:52:28.536Z,15.7
2019-06-11T00:57:28.286Z,15.7
2019-06-11T01:02:40.364Z,15.7
2019-06-11T01:07:27.894Z,15.6
2019-06-11T01:12:27.293Z,15.4
2019-06-11T01:17:28.122Z,15.4
2019-06-11T01:22:29.120Z,15.5
2019-06-11T01:27:28.010Z,15.5
2019-06-11T01:32:28.892Z,15.5
2019-06-11T01:37:27.493Z,15.4
2019-06-11T01:42:28.779Z,15.4
2019-06-11T01:47:27.498Z,15.4
2019-06-11T01:52:28.261Z,15.4
2019-06-11T01:57:28.205Z,15.3
2019-06-11T02:02:28.402Z,15.4
2019-06-11T02:07:27.867Z,15.3
2019-06-11T02:12:27.949Z,15.3
2019-06-11T02:17:27.683Z,15.2
2019-06-11T02:22:27.943Z,15.1
2019-06-11T02:27:27.718Z,15.0
2019-06-11T02:32:29.236Z,15.1
2019-06-11T02:37:29.749Z,15.1
2019-06-11T02:42:28.123Z,15.1
2019-06-11T02:47:29.100Z,15.0
2019-06-11T02:52:29.708Z,15.1
2019-06-11T02:57:34.029Z,15.2
2019-06-11T03:02:29.704Z,15.3
2019-06-11T03:07:28.870Z,15.3
2019-06-11T03:12:27.922Z,15.3
2019-06-11T03:17:29.675Z,15.3
2019-06-11T03:22:32.323Z,15.3
2019-06-11T03:27:29.601Z,15.2
2019-06-11T03:33:10.026Z,15.1
2019-06-11T03:37:55.111Z,15.1
2019-06-11T03:42:31.693Z,15.0
2019-06-11T03:47:31.050Z,15.0
2019-06-11T03:52:31.161Z,15.2
2019-06-11T03:57:30.552Z,15.2
2019-06-11T04:02:32.277Z,15.3
2019-06-11T04:07:42.312Z,15.3
2019-06-11T04:12:29.520Z,15.3
2019-06-11T04:22:30.308Z,15.1
2019-06-11T04:27:30.065Z,15.1
2019-06-11T04:32:30.006Z,15.1
2019-06-11T04:37:51.516Z,15.2
2019-06-11T04:42:32.081Z,15.3
2019-06-11T04:47:38.722Z,15.3
2019-06-11T04:52:31.453Z,15.5
2019-06-11T04:57:31.347Z,15.6
2019-06-11T05:07:48.313Z,15.9
2019-06-11T05:12:34.288Z,16.2
2019-06-11T05:17:32.687Z,16.3
2019-06-11T05:22:32.007Z,16.9
2019-06-11T05:27:30.750Z,16.8
2019-06-11T05:32:35.721Z,17.0
2019-06-11T05:37:51.887Z,17.0
2019-06-11T05:42:34.811Z,17.1
2019-06-11T05:47:30.412Z,17.4
2019-06-11T05:52:28.098Z,17.9
2019-06-11T05:57:29.957Z,18.5
2019-06-11T06:02:31.205Z,19.0
2019-06-11T06:07:30.794Z,19.4
2019-06-11T06:12:30.941Z,19.5
2019-06-11T06:17:30.718Z,19.4
2019-06-11T06:22:30.836Z,18.6
2019-06-11T06:27:29.237Z,18.1
2019-06-11T06:32:32.148Z,17.8
2019-06-11T06:37:29.144Z,17.8
2019-06-11T06:42:29.037Z,17.8
2019-06-11T06:47:30.551Z,17.8
2019-06-11T06:52:31.169Z,17.8
2019-06-11T06:57:29.614Z,17.3
2019-06-11T07:02:28.473Z,17.3
2019-06-11T07:07:32.212Z,17.1
2019-06-11T07:12:31.781Z,16.9
2019-06-11T07:17:28.241Z,16.8
2019-06-11T07:22:29.153Z,16.8
2019-06-11T07:27:31.033Z,17.0
2019-06-11T07:32:30.637Z,17.3
2019-06-11T07:37:30.589Z,17.7
2019-06-11T07:42:30.120Z,18.4
2019-06-11T07:47:31.423Z,19.3
2019-06-11T07:52:31.119Z,19.7
2019-06-11T07:57:32.345Z,19.8
2019-06-11T08:02:28.001Z,19.7
2019-06-11T08:07:31.899Z,20.0
2019-06-11T08:12:32.875Z,20.0
2019-06-11T08:17:32.528Z,19.9
2019-06-11T08:22:32.466Z,20.3
2019-06-11T08:27:39.300Z,20.5
2019-06-11T08:32:31.720Z,20.6
2019-06-11T08:37:27.604Z,20.6
2019-06-11T08:42:27.277Z,21.0
2019-06-11T08:47:30.564Z,21.2
2019-06-11T08:52:31.458Z,21.7
2019-06-11T08:57:30.382Z,21.7
2019-06-11T09:02:30.471Z,22.3
2019-06-11T09:07:30.424Z,22.3
2019-06-11T09:12:27.659Z,22.6
2019-06-11T09:17:30.561Z,23.2
2019-06-11T09:22:30.277Z,23.4
2019-06-11T09:27:30.800Z,23.9
2019-06-11T09:32:28.211Z,24.6
2019-06-11T09:37:30.529Z,24.5
2019-06-11T09:42:27.200Z,24.1
2019-06-11T09:47:38.993Z,24.4
2019-06-11T09:52:27.673Z,24.8
2019-06-11T09:57:27.866Z,24.8
2019-06-11T10:02:30.897Z,24.6
2019-06-11T10:07:30.000Z,24.3
2019-06-11T10:12:28.762Z,24.4
2019-06-11T10:17:30.517Z,24.6
2019-06-11T10:22:30.065Z,25.1
2019-06-11T10:27:27.766Z,25.1
2019-06-11T10:32:30.591Z,25.2
2019-06-11T10:37:28.072Z,24.7
2019-06-11T10:42:37.920Z,24.6
2019-06-11T10:47:30.878Z,24.4
2019-06-11T10:52:30.926Z,23.9
2019-06-11T10:57:30.197Z,23.4
2019-06-11T11:02:30.109Z,22.3
2019-06-11T11:07:30.637Z,22.3
2019-06-11T11:12:28.611Z,21.7
2019-06-11T11:17:30.656Z,21.4
2019-06-11T11:22:30.401Z,21.4
2019-06-11T11:27:27.848Z,21.5
2019-06-11T11:32:28.531Z,21.7
2019-06-11T11:37:30.475Z,21.4
2019-06-11T11:42:33.814Z,21.4
2019-06-11T11:47:27.550Z,21.3
2019-06-11T11:52:31.363Z,21.2
2019-06-11T11:57:29.660Z,21.4
2019-06-11T12:02:27.714Z,21.3
2019-06-11T12:07:30.553Z,21.1
2019-06-11T12:12:27.498Z,20.7
2019-06-11T12:17:30.734Z,20.3
2019-06-11T12:22:30.970Z,19.8
2019-06-11T12:27:30.861Z,19.7
2019-06-11T12:32:31.058Z,19.6
2019-06-11T12:37:30.731Z,19.6
2019-06-11T12:42:30.832Z,19.6
2019-06-11T12:47:29.185Z,19.3
2019-06-11T12:52:31.220Z,19.0
2019-06-11T12:57:27.875Z,18.7
2019-06-11T13:02:30.833Z,18.9
2019-06-11T13:07:28.106Z,18.9
2019-06-11T13:12:28.003Z,19.1
2019-06-11T13:17:27.756Z,19.2
2019-06-11T13:22:30.335Z,19.2
2019-06-11T13:27:30.559Z,19.5
2019-06-11T13:32:28.002Z,19.5
2019-06-11T13:37:27.813Z,19.0
2019-06-11T13:42:30.336Z,18.9
2019-06-11T13:47:29.329Z,18.9
2019-06-11T13:52:30.476Z,19.0
2019-06-11T13:57:27.925Z,19.1
2019-06-11T14:02:28.751Z,19.1
2019-06-11T14:07:30.658Z,19.0
2019-06-11T14:12:30.798Z,19.0
2019-06-11T14:17:29.796Z,19.0
2019-06-11T14:22:27.673Z,19.0
2019-06-11T14:27:27.832Z,19.2
2019-06-11T14:32:31.123Z,19.0
2019-06-11T14:37:30.812Z,18.7
2019-06-11T14:42:30.807Z,18.6
2019-06-11T14:47:30.683Z,18.9
2019-06-11T14:52:27.382Z,19.2
2019-06-11T14:57:30.334Z,19.5
2019-06-11T15:02:30.751Z,19.6
2019-06-11T15:07:29.844Z,19.6
2019-06-11T15:12:30.080Z,20.0
2019-06-11T15:17:33.981Z,20.5
2019-06-11T15:22:30.670Z,21.1
2019-06-11T15:27:27.738Z,21.6
2019-06-11T15:32:28.068Z,21.5
2019-06-11T15:37:28.235Z,22.2
2019-06-11T15:42:28.082Z,22.2
2019-06-11T15:47:31.066Z,22.4
2019-06-11T15:52:29.963Z,22.4
2019-06-11T15:57:30.104Z,22.6
2019-06-11T16:02:30.388Z,22.4
2019-06-11T16:07:27.953Z,22.3
2019-06-11T16:12:30.441Z,21.8
2019-06-11T16:17:30.153Z,21.8
2019-06-11T16:22:30.224Z,21.3
2019-06-11T16:27:30.485Z,21.3
2019-06-11T16:32:28.558Z,20.9
2019-06-11T16:37:30.194Z,20.9
2019-06-11T16:42:30.413Z,20.7
2019-06-11T16:47:30.338Z,20.5
2019-06-11T16:52:30.557Z,20.3
2019-06-11T16:57:30.020Z,20.3
2019-06-11T17:02:30.703Z,20.1
2019-06-11T17:07:27.746Z,19.9
2019-06-11T17:12:30.497Z,19.9
2019-06-11T17:17:28.390Z,19.8
2019-06-11T17:22:30.463Z,19.7
2019-06-11T17:27:42.325Z,19.6
2019-06-11T17:32:31.314Z,19.6
2019-06-11T17:37:27.819Z,19.6
2019-06-11T17:42:30.203Z,19.6
2019-06-11T17:47:31.294Z,19.6
2019-06-11T17:52:29.997Z,19.6
2019-06-11T17:57:29.754Z,19.6
2019-06-11T18:02:30.430Z,19.7
2019-06-11T18:07:30.638Z,19.7
2019-06-11T18:12:30.625Z,19.6
2019-06-11T18:17:27.642Z,19.5
2019-06-11T18:22:28.519Z,19.5
2019-06-11T18:27:32.174Z,19.5
2019-06-11T18:32:32.291Z,19.5
2019-06-11T18:37:29.442Z,19.5
2019-06-11T18:42:29.599Z,19.4
2019-06-11T18:47:28.688Z,19.3
2019-06-11T18:52:28.598Z,19.3
2019-06-11T18:57:31.868Z,19.4
2019-06-11T19:02:29.682Z,19.3
2019-06-11T19:07:28.968Z,19.3
2019-06-11T19:12:29.459Z,19.4
2019-06-11T19:17:34.685Z,19.3
2019-06-11T19:22:29.184Z,19.2
2019-06-11T19:27:29.575Z,19.1
2019-06-11T19:32:30.224Z,19.1
2019-06-11T19:37:28.877Z,19.1
2019-06-11T19:42:30.951Z,19.0
2019-06-11T19:47:42.217Z,19.0
2019-06-11T19:52:31.565Z,18.9
2019-06-11T19:57:28.738Z,18.8
2019-06-11T20:02:27.570Z,18.6
2019-06-11T20:07:31.786Z,18.6
2019-06-11T20:12:27.687Z,18.6
2019-06-11T20:17:28.251Z,18.6
2019-06-11T20:22:30.695Z,18.6
2019-06-11T20:27:29.629Z,18.6
2019-06-11T20:32:30.595Z,18.5
2019-06-11T20:37:30.586Z,18.3
2019-06-11T20:42:29.519Z,18.2
2019-06-11T20:47:29.409Z,18.2
2019-06-11T20:52:32.870Z,18.3
2019-06-11T20:57:31.058Z,18.3
2019-06-11T21:02:28.033Z,18.3
2019-06-11T21:07:30.582Z,18.3
2019-06-11T21:12:30.391Z,18.3
2019-06-11T21:17:28.319Z,18.2
2019-06-11T21:22:30.121Z,18.2
2019-06-11T21:27:27.709Z,18.1
2019-06-11T21:32:27.737Z,18.1
2019-06-11T21:37:30.009Z,17.9
2019-06-11T21:42:27.686Z,17.8
2019-06-11T21:47:28.055Z,17.7
2019-06-11T21:52:28.102Z,17.6
2019-06-11T21:57:30.185Z,17.6
2019-06-11T22:02:27.693Z,17.6
2019-06-11T22:07:30.100Z,17.5
2019-06-11T22:12:29.015Z,17.4
2019-06-11T22:22:42.217Z,17.3
2019-06-11T22:27:43.007Z,17.3
2019-06-11T22:32:41.872Z,17.5
2019-06-11T22:37:41.324Z,17.5
2019-06-11T22:42:41.483Z,17.5
2019-06-11T22:47:41.867Z,17.5
2019-06-11T22:52:44.236Z,17.4
2019-06-11T22:57:42.248Z,17.2
2019-06-11T23:02:41.690Z,17.1
2019-06-11T23:07:43.719Z,16.9
2019-06-11T23:12:27.479Z,16.8
2019-06-11T23:17:30.400Z,16.7
2019-06-11T23:22:29.968Z,16.6
2019-06-11T23:27:29.475Z,16.5
2019-06-11T23:32:27.767Z,16.4
2019-06-11T23:37:28.488Z,16.2
2019-06-11T23:42:27.868Z,16.2
2019-06-11T23:47:30.175Z,16.1
2019-06-11T23:52:27.724Z,16.0
2019-06-11T23:57:27.724Z,15.9
